Accueil
METAR-TAF:

METAR-TAF

Aéroports :

Aéroport de Guernesey

Guernesey,

latitude: 49-26N, longitude: 002-36W, altitude: 102 m

Observation

Le bulletin a été fait il y a 37 minutes, à 16:20 UTC
Vent 5 kt de est/sud-est
Température 8°C
Humidité 81%
Pression 1026 hPa
Visibilité 10 km ou plus
Quelques nuages à une hauteur de 2000 ft
Nuages fragmentés à une hauteur de 4800 ft

METAR: EGJB 011620Z 11005KT 9999 FEW020 BKN048 08/05 Q1026

Heure: 16:57 (16:57 UTC)

Prévision

Le bulletin a été fait il y a 2 heures et 55 minutes, à 14:02 UTC
Prévision valable du 01 à 15 UTC au 02 à 00 UTC
Vent 8 kt de est
Visibilité 10 km ou plus
Quelques nuages à une hauteur de 1000 ft
Nuages épars à une hauteur de 2000 ft
Probabilité 30% :
Temporairement
du 01 à 15 UTC au 02 à 00 UTC
Visibilité: 8000 m
Nuages fragmentés à une hauteur de 1200 ft
faibles averses de pluie

TAF: EGJB 011402Z 0115/0200 09008KT 9999 FEW010 SCT020 PROB30 TEMPO 0115/0200 8000 -SHRA BKN012

Observations et prévisions météorologiques de plus de 4000 aéroports (messages METAR et TAF).

Les stations disponibles sont représentées par des disques jaunes et rouges sur la carte.

Passer la souris dessus pour voir le nom de la station.

Cliquer dessus pour voir les observations et prévisions météorologiques.

Pour changer de carte: cliquez sur les boutons verts avec une croix noire pour zoomer, sur le bouton vert avec un tiret pour effectuer un zoom arrière, ou sur les flèches vertes pour les cartes adjacentes.


METAR-TAF: